createdAt,value
2023-01-29T00:00:21.589Z,96.79
2023-01-29T00:01:21.553Z,96.89
2023-01-29T00:02:21.575Z,96.89
2023-01-29T00:03:21.563Z,97.00
2023-01-29T00:04:21.575Z,97.00
2023-01-29T00:05:27.941Z,96.89
2023-01-29T00:06:22.523Z,96.79
2023-01-29T00:07:21.493Z,96.79
2023-01-29T00:08:21.472Z,96.83
2023-01-29T00:09:21.465Z,97.00
2023-01-29T00:10:21.447Z,96.94
2023-01-29T00:11:21.453Z,96.94
2023-01-29T00:12:21.426Z,97.25
2023-01-29T00:13:21.422Z,97.25
2023-01-29T00:14:21.449Z,97.15
2023-01-29T00:15:21.397Z,97.36
2023-01-29T00:16:21.403Z,97.36
2023-01-29T00:17:21.488Z,97.36
2023-01-29T00:18:21.363Z,97.47
2023-01-29T00:19:21.353Z,97.67
2023-01-29T00:20:21.339Z,97.78
2023-01-29T00:21:21.367Z,97.88
2023-01-29T00:22:21.317Z,97.88
2023-01-29T00:23:21.321Z,97.88
2023-01-29T00:24:21.392Z,97.88
2023-01-29T00:25:21.322Z,97.88
2023-01-29T00:26:21.278Z,97.99
2023-01-29T00:27:21.277Z,97.99
2023-01-29T00:28:25.322Z,98.10
2023-01-29T00:29:21.262Z,98.20
2023-01-29T00:30:21.221Z,98.20
2023-01-29T00:31:21.321Z,98.14
2023-01-29T00:32:21.323Z,98.03
2023-01-29T00:33:21.193Z,98.24
2023-01-29T00:34:21.182Z,98.35
2023-01-29T00:35:21.181Z,98.35
2023-01-29T00:36:21.166Z,98.35
2023-01-29T00:37:21.177Z,98.35
2023-01-29T00:38:21.151Z,98.35
2023-01-29T00:39:21.324Z,98.35
2023-01-29T00:40:21.118Z,98.35
2023-01-29T00:41:21.122Z,98.46
2023-01-29T00:42:21.101Z,98.46
2023-01-29T00:43:21.090Z,98.46
2023-01-29T00:44:21.083Z,98.56
2023-01-29T00:45:21.093Z,98.56
2023-01-29T00:46:21.091Z,98.66
2023-01-29T00:47:21.072Z,98.66
2023-01-29T00:48:21.072Z,98.56
2023-01-29T00:49:21.019Z,98.56
2023-01-29T00:50:21.012Z,98.66
2023-01-29T00:51:21.024Z,98.66
2023-01-29T00:52:20.991Z,98.46
2023-01-29T00:53:20.987Z,98.66
2023-01-29T00:54:20.972Z,98.56
2023-01-29T00:55:20.974Z,98.77
2023-01-29T00:56:21.205Z,98.56
2023-01-29T00:57:21.682Z,98.66
2023-01-29T00:58:20.922Z,98.56
2023-01-29T00:59:20.916Z,98.56
2023-01-29T01:00:20.925Z,98.66
2023-01-29T01:01:20.893Z,98.66
2023-01-29T01:02:20.959Z,98.66
2023-01-29T01:03:20.867Z,98.66
2023-01-29T01:04:20.865Z,98.66
2023-01-29T01:05:20.846Z,98.56
2023-01-29T01:06:20.844Z,98.56
2023-01-29T01:07:20.823Z,98.66
2023-01-29T01:08:21.929Z,98.56
2023-01-29T01:09:20.809Z,98.56
2023-01-29T01:10:20.812Z,98.46
2023-01-29T01:11:20.812Z,98.50
2023-01-29T01:12:20.812Z,98.39
2023-01-29T01:13:21.803Z,98.39
2023-01-29T01:14:21.063Z,98.18
2023-01-29T01:15:20.765Z,98.18
2023-01-29T01:16:20.793Z,98.29
2023-01-29T01:17:20.722Z,98.39
2023-01-29T01:18:20.721Z,98.60
2023-01-29T01:19:20.702Z,98.82
2023-01-29T01:20:20.689Z,98.82
2023-01-29T01:21:20.670Z,98.71
2023-01-29T01:22:20.750Z,98.71
2023-01-29T01:23:20.650Z,98.82
2023-01-29T01:24:20.737Z,98.77
2023-01-29T01:25:20.641Z,98.71
2023-01-29T01:26:20.621Z,98.71
2023-01-29T01:27:20.605Z,98.71
2023-01-29T01:28:20.852Z,98.71
2023-01-29T01:29:20.897Z,98.60
2023-01-29T01:30:24.490Z,98.60
2023-01-29T01:31:21.384Z,98.60
2023-01-29T01:32:20.606Z,98.50
2023-01-29T01:33:20.607Z,98.82
2023-01-29T01:34:20.522Z,98.92
2023-01-29T01:35:20.510Z,98.92
2023-01-29T01:36:20.538Z,98.82
2023-01-29T01:37:20.495Z,98.92
2023-01-29T01:38:20.470Z,99.02
2023-01-29T01:39:21.232Z,99.02
2023-01-29T01:40:20.462Z,99.02
2023-01-29T01:41:20.459Z,99.02
2023-01-29T01:42:20.451Z,98.92
2023-01-29T01:43:21.641Z,98.82
2023-01-29T01:44:20.420Z,98.82
2023-01-29T01:45:20.397Z,98.60
2023-01-29T01:46:20.451Z,98.71
2023-01-29T01:47:20.372Z,98.60
2023-01-29T01:48:20.360Z,98.71
2023-01-29T01:49:20.397Z,98.50
2023-01-29T01:50:21.139Z,98.55
2023-01-29T01:51:20.348Z,98.65
2023-01-29T01:52:20.365Z,98.86
2023-01-29T01:53:20.409Z,98.82
2023-01-29T01:54:20.289Z,98.86
2023-01-29T01:55:20.367Z,98.86
2023-01-29T01:56:20.318Z,98.86
2023-01-29T01:57:20.280Z,98.92
2023-01-29T01:58:27.494Z,99.02
2023-01-29T01:59:27.508Z,98.92
2023-01-29T02:00:27.505Z,98.97
2023-01-29T02:01:20.286Z,98.97
2023-01-29T02:02:27.577Z,98.86
2023-01-29T02:03:28.477Z,98.97
2023-01-29T02:04:27.817Z,98.86
2023-01-29T02:05:20.220Z,98.97
2023-01-29T02:06:20.260Z,99.18
2023-01-29T02:07:20.212Z,99.28
2023-01-29T02:08:20.218Z,99.18
2023-01-29T02:09:20.130Z,99.18
2023-01-29T02:10:20.143Z,99.18
2023-01-29T02:11:20.137Z,99.18
2023-01-29T02:12:20.104Z,99.18
2023-01-29T02:13:20.098Z,99.18
2023-01-29T02:14:20.103Z,99.18
2023-01-29T02:15:20.824Z,98.97
2023-01-29T02:16:20.144Z,98.86
2023-01-29T02:17:20.167Z,98.91
2023-01-29T02:18:20.040Z,98.91
2023-01-29T02:19:20.099Z,98.80
2023-01-29T02:20:20.017Z,98.80
2023-01-29T02:21:20.014Z,98.80
2023-01-29T02:22:20.012Z,98.80
2023-01-29T02:23:20.001Z,98.91
2023-01-29T02:24:20.114Z,99.01
2023-01-29T02:25:19.988Z,99.11
2023-01-29T02:26:19.972Z,99.11
2023-01-29T02:27:19.941Z,99.11
2023-01-29T02:28:19.935Z,99.33
2023-01-29T02:29:19.928Z,99.39
2023-01-29T02:30:19.910Z,99.39
2023-01-29T02:31:20.076Z,99.49
2023-01-29T02:32:19.882Z,99.49
2023-01-29T02:33:19.881Z,99.64
2023-01-29T02:34:19.871Z,99.64
2023-01-29T02:35:19.844Z,99.64
2023-01-29T02:36:19.853Z,99.75
2023-01-29T02:37:19.817Z,99.75
2023-01-29T02:38:20.990Z,99.64
2023-01-29T02:39:20.141Z,99.75
2023-01-29T02:40:20.080Z,99.96
2023-01-29T02:41:19.791Z,99.85
2023-01-29T02:42:20.439Z,99.75
2023-01-29T02:43:19.804Z,99.54
2023-01-29T02:44:19.767Z,99.85
2023-01-29T02:45:20.032Z,99.85
2023-01-29T02:46:19.851Z,99.96
2023-01-29T02:47:19.970Z,99.85
2023-01-29T02:48:19.699Z,99.75
2023-01-29T02:49:19.931Z,99.96
2023-01-29T02:50:19.726Z,99.99
2023-01-29T02:51:19.659Z,99.99
2023-01-29T02:52:19.660Z,99.99
2023-01-29T02:53:19.643Z,99.99
2023-01-29T02:54:19.644Z,99.99
2023-01-29T02:55:19.646Z,99.96
2023-01-29T02:56:19.618Z,99.96
2023-01-29T02:57:19.669Z,99.96
2023-01-29T02:58:19.580Z,99.96
2023-01-29T02:59:19.588Z,99.96
2023-01-29T03:00:19.705Z,99.96
2023-01-29T03:01:19.576Z,99.96
2023-01-29T03:02:19.628Z,99.96
2023-01-29T03:03:19.610Z,99.96
2023-01-29T03:04:19.543Z,99.85
2023-01-29T03:05:19.499Z,99.75
2023-01-29T03:06:19.728Z,99.75
2023-01-29T03:07:19.489Z,99.75
2023-01-29T03:08:19.471Z,99.75
2023-01-29T03:09:19.470Z,99.75
2023-01-29T03:10:19.468Z,99.75
2023-01-29T03:11:19.444Z,99.70
2023-01-29T03:12:20.132Z,99.70
2023-01-29T03:13:19.662Z,99.49
2023-01-29T03:14:19.423Z,99.33
2023-01-29T03:15:19.389Z,99.33
2023-01-29T03:16:19.430Z,99.43
2023-01-29T03:17:19.369Z,99.43
2023-01-29T03:18:20.222Z,99.33
2023-01-29T03:19:19.358Z,99.43
2023-01-29T03:20:19.710Z,99.33
2023-01-29T03:21:19.331Z,99.43
2023-01-29T03:22:19.351Z,99.33
2023-01-29T03:23:19.327Z,99.22
2023-01-29T03:24:19.324Z,99.33
2023-01-29T03:25:19.291Z,99.43
2023-01-29T03:26:19.281Z,99.54
2023-01-29T03:27:19.289Z,99.43
2023-01-29T03:28:19.256Z,99.54
2023-01-29T03:29:19.317Z,99.49
2023-01-29T03:30:20.701Z,99.49
2023-01-29T03:31:19.429Z,99.60
2023-01-29T03:32:20.415Z,99.70
2023-01-29T03:33:19.278Z,99.70
2023-01-29T03:34:19.208Z,99.70
2023-01-29T03:35:19.176Z,99.81
2023-01-29T03:36:19.201Z,99.91
2023-01-29T03:37:19.470Z,99.99
2023-01-29T03:38:19.145Z,99.99
2023-01-29T03:39:19.171Z,99.99
2023-01-29T03:40:19.421Z,99.99
2023-01-29T03:41:19.470Z,99.99
2023-01-29T03:42:19.969Z,99.98
2023-01-29T03:43:19.108Z,99.87
2023-01-29T03:44:19.107Z,99.76
2023-01-29T03:45:23.076Z,99.66
2023-01-29T03:46:19.157Z,99.55
2023-01-29T03:47:19.067Z,99.55
2023-01-29T03:48:23.788Z,99.66
2023-01-29T03:49:19.033Z,99.66
2023-01-29T03:50:19.225Z,99.61
2023-01-29T03:51:19.036Z,99.61
2023-01-29T03:52:19.027Z,99.51
2023-01-29T03:53:19.006Z,99.40
2023-01-29T03:54:19.838Z,99.19
2023-01-29T03:55:18.960Z,99.08
2023-01-29T03:56:18.940Z,98.98
2023-01-29T03:57:19.947Z,98.88
2023-01-29T03:58:18.936Z,98.77
2023-01-29T03:59:19.212Z,98.77
2023-01-29T04:01:29.224Z,98.82
2023-01-29T04:02:29.182Z,98.71
2023-01-29T04:03:29.164Z,98.71
2023-01-29T04:04:29.303Z,98.71
2023-01-29T04:05:29.122Z,98.82
2023-01-29T04:06:29.092Z,98.82
2023-01-29T04:07:29.061Z,98.71
2023-01-29T04:08:29.051Z,98.82
2023-01-29T04:09:29.062Z,98.92
2023-01-29T04:10:29.040Z,98.92
2023-01-29T04:11:29.029Z,98.92
2023-01-29T04:12:37.312Z,98.92
2023-01-29T04:13:37.334Z,98.82
2023-01-29T04:14:29.045Z,98.82
2023-01-29T04:15:29.291Z,98.82
2023-01-29T04:16:29.099Z,98.92
2023-01-29T04:17:29.044Z,99.02
2023-01-29T04:18:28.949Z,99.02
2023-01-29T04:19:28.984Z,99.02
2023-01-29T04:20:28.930Z,99.02
2023-01-29T04:21:28.933Z,99.13
2023-01-29T04:22:28.919Z,99.13
2023-01-29T04:23:28.969Z,99.13
2023-01-29T04:24:28.967Z,99.13
2023-01-29T04:25:28.962Z,99.13
2023-01-29T04:26:28.882Z,99.13
2023-01-29T04:27:28.868Z,99.24
2023-01-29T04:28:28.900Z,99.24
2023-01-29T04:29:30.122Z,99.24
2023-01-29T04:30:29.560Z,99.24
2023-01-29T04:31:28.904Z,99.19
2023-01-29T04:32:28.818Z,99.08
2023-01-29T04:33:29.083Z,99.08
2023-01-29T04:34:28.782Z,98.98
2023-01-29T04:35:28.760Z,98.98
2023-01-29T04:36:28.777Z,98.98
2023-01-29T04:37:28.749Z,98.98
2023-01-29T04:38:28.759Z,98.88
2023-01-29T04:39:28.749Z,98.88
2023-01-29T04:40:28.779Z,98.77
2023-01-29T04:41:28.699Z,98.77
2023-01-29T04:42:28.690Z,98.77
2023-01-29T04:43:28.714Z,98.77
2023-01-29T04:44:28.681Z,98.77
2023-01-29T04:45:28.680Z,98.72
2023-01-29T04:46:28.685Z,98.72
2023-01-29T04:47:28.771Z,98.62
2023-01-29T04:48:28.628Z,98.66
2023-01-29T04:49:28.648Z,98.77
2023-01-29T04:50:28.599Z,98.66
2023-01-29T04:51:28.602Z,98.66
2023-01-29T04:52:28.579Z,98.66
2023-01-29T04:53:28.583Z,98.66
2023-01-29T04:54:28.670Z,98.77
2023-01-29T04:55:28.549Z,98.66
2023-01-29T04:56:28.592Z,98.66
2023-01-29T04:57:28.570Z,98.66
2023-01-29T04:58:28.520Z,98.66
2023-01-29T04:59:28.509Z,98.77
2023-01-29T05:00:28.499Z,98.77
2023-01-29T05:01:28.506Z,98.88
2023-01-29T05:02:28.513Z,98.88
2023-01-29T05:03:28.489Z,98.88
2023-01-29T05:04:28.470Z,98.88
2023-01-29T05:05:28.437Z,98.88
2023-01-29T05:06:28.437Z,98.98
2023-01-29T05:07:28.434Z,99.08
2023-01-29T05:08:28.426Z,99.08
2023-01-29T05:09:28.447Z,99.08
2023-01-29T05:10:28.645Z,98.98
2023-01-29T05:11:28.418Z,98.94
2023-01-29T05:12:28.366Z,98.98
2023-01-29T05:13:28.354Z,98.88
2023-01-29T05:14:28.396Z,98.98
2023-01-29T05:15:28.331Z,99.04
2023-01-29T05:16:28.369Z,99.04
2023-01-29T05:17:28.325Z,99.04
2023-01-29T05:18:28.363Z,99.04
2023-01-29T05:19:28.309Z,99.04
2023-01-29T05:20:28.294Z,99.04
2023-01-29T05:21:28.270Z,99.04
2023-01-29T05:22:28.258Z,99.04
2023-01-29T05:23:28.257Z,98.94
2023-01-29T05:24:28.554Z,98.94
2023-01-29T05:25:28.228Z,98.94
2023-01-29T05:26:28.250Z,98.83
2023-01-29T05:27:28.239Z,98.83
2023-01-29T05:28:28.187Z,98.77
2023-01-29T05:29:28.197Z,98.66
2023-01-29T05:30:28.184Z,98.66
2023-01-29T05:31:28.244Z,98.66
2023-01-29T05:32:28.148Z,98.66
2023-01-29T05:33:28.154Z,98.66
2023-01-29T05:34:28.158Z,98.66
2023-01-29T05:35:28.120Z,98.66
2023-01-29T05:36:29.865Z,98.77
2023-01-29T05:37:28.132Z,98.77
2023-01-29T05:38:28.097Z,98.88
2023-01-29T05:39:28.089Z,98.88
2023-01-29T05:40:28.068Z,98.88
2023-01-29T05:41:28.060Z,98.92
2023-01-29T05:42:28.068Z,98.92
2023-01-29T05:43:28.038Z,98.92
2023-01-29T05:44:28.037Z,99.13
2023-01-29T05:45:28.007Z,99.13
2023-01-29T05:46:28.054Z,99.02
2023-01-29T05:47:28.010Z,98.92
2023-01-29T05:48:27.986Z,98.82
2023-01-29T05:49:27.990Z,99.02
2023-01-29T05:50:27.977Z,98.92
2023-01-29T05:51:27.947Z,98.82
2023-01-29T05:52:27.969Z,98.82
2023-01-29T05:53:27.928Z,98.71
2023-01-29T05:54:27.929Z,98.50
2023-01-29T05:55:27.950Z,98.50
2023-01-29T05:56:27.887Z,98.50
2023-01-29T05:57:27.908Z,98.39
2023-01-29T05:58:27.893Z,98.39
2023-01-29T05:59:27.890Z,98.39
2023-01-29T06:00:27.869Z,98.18
2023-01-29T06:01:27.840Z,98.18
2023-01-29T06:02:27.902Z,98.08
2023-01-29T06:03:27.819Z,98.08
2023-01-29T06:04:27.817Z,97.97
2023-01-29T06:05:27.808Z,97.87
2023-01-29T06:06:27.820Z,97.76
2023-01-29T06:07:27.801Z,97.76
2023-01-29T06:08:27.767Z,97.66
2023-01-29T06:09:27.793Z,97.55
2023-01-29T06:10:27.751Z,97.55
2023-01-29T06:11:27.739Z,97.66
2023-01-29T06:12:27.719Z,97.45
2023-01-29T06:13:27.717Z,97.45
2023-01-29T06:14:27.763Z,97.34
2023-01-29T06:15:27.688Z,97.45
2023-01-29T06:16:27.797Z,97.34
2023-01-29T06:17:27.701Z,97.24
2023-01-29T06:18:28.420Z,97.34
2023-01-29T06:19:27.642Z,97.34
2023-01-29T06:20:27.677Z,97.34
2023-01-29T06:21:27.676Z,97.34
2023-01-29T06:22:31.446Z,97.13
2023-01-29T06:23:28.867Z,97.13
2023-01-29T06:24:34.873Z,97.03
2023-01-29T06:25:36.053Z,96.92
2023-01-29T06:26:27.678Z,96.81
2023-01-29T06:27:27.652Z,96.81
2023-01-29T06:28:27.618Z,96.71
2023-01-29T06:29:27.613Z,96.71
2023-01-29T06:30:27.597Z,96.61
2023-01-29T06:31:38.271Z,96.61
2023-01-29T06:32:28.609Z,96.61
2023-01-29T06:33:28.247Z,96.61
2023-01-29T06:34:27.557Z,96.71
2023-01-29T06:35:27.487Z,96.61
2023-01-29T06:36:27.743Z,96.75
2023-01-29T06:37:27.453Z,96.65
2023-01-29T06:38:27.445Z,96.75
2023-01-29T06:39:27.423Z,96.97
2023-01-29T06:40:28.226Z,97.07
2023-01-29T06:41:27.692Z,97.07
2023-01-29T06:42:27.717Z,97.07
2023-01-29T06:43:27.392Z,97.07
2023-01-29T06:44:27.399Z,97.07
2023-01-29T06:45:27.380Z,97.17
2023-01-29T06:46:28.117Z,97.17
2023-01-29T06:47:27.333Z,97.28
2023-01-29T06:48:27.338Z,97.22
2023-01-29T06:49:27.416Z,97.33
2023-01-29T06:50:27.345Z,97.43
2023-01-29T06:51:27.340Z,97.43
2023-01-29T06:52:27.284Z,97.53
2023-01-29T06:53:27.283Z,97.53
2023-01-29T06:54:27.272Z,97.64
2023-01-29T06:55:27.276Z,97.53
2023-01-29T06:56:27.239Z,97.53
2023-01-29T06:57:27.222Z,97.53
2023-01-29T06:58:27.457Z,97.64
2023-01-29T06:59:27.221Z,97.64
2023-01-29T07:00:27.219Z,97.53
2023-01-29T07:01:36.115Z,97.47
2023-01-29T07:02:28.250Z,97.69
2023-01-29T07:03:27.164Z,97.69
2023-01-29T07:04:27.162Z,97.69
2023-01-29T07:05:27.213Z,97.69
2023-01-29T07:06:27.135Z,97.89
2023-01-29T07:07:27.120Z,97.79
2023-01-29T07:08:27.121Z,97.79
2023-01-29T07:09:27.141Z,97.79
2023-01-29T07:10:27.860Z,97.89
2023-01-29T07:11:27.101Z,97.96
2023-01-29T07:12:27.341Z,97.85
2023-01-29T07:13:27.336Z,97.85
2023-01-29T07:14:27.047Z,97.75
2023-01-29T07:15:27.041Z,97.85
2023-01-29T07:16:27.076Z,97.96
2023-01-29T07:17:27.017Z,97.96
2023-01-29T07:18:27.239Z,98.27
2023-01-29T07:19:27.012Z,98.38
2023-01-29T07:20:26.974Z,98.27
2023-01-29T07:21:28.119Z,98.23
2023-01-29T07:22:26.954Z,98.23
2023-01-29T07:23:26.969Z,98.23
2023-01-29T07:24:26.983Z,98.18
2023-01-29T07:25:26.951Z,98.18
2023-01-29T07:26:26.943Z,98.08
2023-01-29T07:27:26.900Z,97.97
2023-01-29T07:28:26.891Z,97.87
2023-01-29T07:29:26.885Z,97.76
2023-01-29T07:30:26.881Z,97.76
2023-01-29T07:31:27.013Z,97.76
2023-01-29T07:32:26.881Z,97.61
2023-01-29T07:33:26.830Z,97.61
2023-01-29T07:34:26.840Z,97.61
2023-01-29T07:35:26.839Z,97.51
2023-01-29T07:36:26.834Z,97.51
2023-01-29T07:37:26.794Z,97.41
2023-01-29T07:38:26.786Z,97.30
2023-01-29T07:39:26.834Z,97.25
2023-01-29T07:40:26.791Z,97.15
2023-01-29T07:41:26.770Z,97.05
2023-01-29T07:42:26.742Z,97.05
2023-01-29T07:43:26.741Z,97.05
2023-01-29T07:44:26.735Z,97.05
2023-01-29T07:45:26.700Z,97.15
2023-01-29T07:46:26.734Z,97.11
2023-01-29T07:47:26.689Z,97.11
2023-01-29T07:48:26.971Z,97.00
2023-01-29T07:49:26.671Z,96.79
2023-01-29T07:50:26.761Z,96.58
2023-01-29T07:51:26.670Z,96.43
2023-01-29T07:52:26.661Z,96.22
2023-01-29T07:53:26.944Z,96.01
2023-01-29T07:54:26.931Z,95.80
2023-01-29T07:55:26.608Z,95.59
2023-01-29T07:56:26.591Z,95.34
2023-01-29T07:57:26.593Z,95.23
2023-01-29T07:58:26.560Z,95.13
2023-01-29T07:59:26.601Z,95.02
2023-01-29T08:00:26.547Z,94.92
2023-01-29T08:01:26.950Z,94.87
2023-01-29T08:02:26.850Z,94.98
2023-01-29T08:03:27.404Z,94.98
2023-01-29T08:04:26.517Z,95.08
2023-01-29T08:05:27.479Z,95.29
2023-01-29T08:06:26.859Z,95.40
2023-01-29T08:07:26.471Z,95.40
2023-01-29T08:08:26.566Z,95.50
2023-01-29T08:09:28.289Z,95.46
2023-01-29T08:10:34.101Z,95.25
2023-01-29T08:11:30.191Z,95.25
2023-01-29T08:12:30.446Z,95.04
2023-01-29T08:13:26.523Z,94.73
2023-01-29T08:14:27.122Z,94.31
2023-01-29T08:15:27.189Z,93.78
2023-01-29T08:16:28.196Z,93.15
2023-01-29T08:17:26.786Z,92.80
2023-01-29T08:18:26.671Z,92.48
2023-01-29T08:19:26.432Z,92.16
2023-01-29T08:20:27.309Z,91.96
2023-01-29T08:21:31.119Z,91.75
2023-01-29T08:22:26.578Z,91.33
2023-01-29T08:23:27.284Z,90.91
2023-01-29T08:24:35.952Z,90.80
2023-01-29T08:25:28.380Z,90.80
2023-01-29T08:26:26.288Z,90.49
2023-01-29T08:27:47.262Z,90.17
2023-01-29T08:28:26.257Z,89.97
2023-01-29T08:29:26.239Z,89.97
2023-01-29T08:30:27.131Z,89.75
2023-01-29T08:31:27.100Z,89.75
2023-01-29T08:32:34.131Z,89.75
2023-01-29T08:33:39.344Z,89.34
2023-01-29T08:34:35.743Z,89.34
2023-01-29T08:35:39.809Z,89.34
2023-01-29T08:36:33.479Z,89.23
2023-01-29T08:37:26.491Z,89.12
2023-01-29T08:38:26.248Z,89.02
2023-01-29T08:39:26.230Z,88.92
2023-01-29T08:40:27.153Z,88.77
2023-01-29T08:41:26.444Z,88.56
2023-01-29T08:42:26.089Z,88.35
2023-01-29T08:43:26.904Z,88.24
2023-01-29T08:44:26.093Z,88.24
2023-01-29T08:45:30.180Z,88.24
2023-01-29T08:46:26.083Z,88.14
2023-01-29T08:47:29.423Z,87.93
2023-01-29T08:48:26.036Z,87.93
2023-01-29T08:49:26.033Z,87.47
2023-01-29T08:50:26.381Z,87.47
2023-01-29T08:51:27.150Z,87.37
2023-01-29T08:52:26.359Z,87.26
2023-01-29T08:53:25.983Z,87.37
2023-01-29T08:54:27.899Z,87.58
2023-01-29T08:55:26.214Z,87.47
2023-01-29T08:56:29.523Z,87.37
2023-01-29T08:57:26.231Z,87.26
2023-01-29T08:58:26.287Z,87.16
2023-01-29T08:59:25.920Z,87.01
2023-01-29T09:00:25.957Z,87.12
2023-01-29T09:01:25.953Z,87.12
2023-01-29T09:02:25.917Z,87.05
2023-01-29T09:03:25.856Z,87.12
2023-01-29T09:04:26.094Z,87.23
2023-01-29T09:05:25.895Z,87.23
2023-01-29T09:06:25.830Z,87.43
2023-01-29T09:07:25.849Z,87.43
2023-01-29T09:08:25.818Z,87.33
2023-01-29T09:09:25.813Z,87.54
2023-01-29T09:10:25.784Z,87.01
2023-01-29T09:11:25.782Z,87.01
2023-01-29T09:12:26.662Z,87.01
2023-01-29T09:13:25.751Z,87.12
2023-01-29T09:14:25.738Z,87.12
2023-01-29T09:15:26.494Z,87.01
2023-01-29T09:16:25.737Z,86.91
2023-01-29T09:17:25.720Z,87.01
2023-01-29T09:18:25.699Z,87.01
2023-01-29T09:19:25.711Z,87.33
2023-01-29T09:20:25.660Z,87.64
2023-01-29T09:21:25.669Z,87.54
2023-01-29T09:22:25.681Z,87.29
2023-01-29T09:23:25.649Z,86.98
2023-01-29T09:24:25.623Z,86.77
2023-01-29T09:25:25.600Z,86.45
2023-01-29T09:26:25.661Z,86.24
2023-01-29T09:27:25.598Z,86.35
2023-01-29T09:28:25.579Z,86.35
2023-01-29T09:29:25.599Z,86.14
2023-01-29T09:30:25.550Z,85.82
2023-01-29T09:31:25.661Z,85.89
2023-01-29T09:32:55.445Z,85.99
2023-01-29T09:33:26.520Z,86.10
2023-01-29T09:34:25.500Z,85.78
2023-01-29T09:35:29.048Z,85.99
2023-01-29T09:36:25.510Z,85.68
2023-01-29T09:37:25.600Z,85.47
2023-01-29T09:38:25.459Z,85.47
2023-01-29T09:39:28.224Z,85.26
2023-01-29T09:40:25.476Z,85.36
2023-01-29T09:41:25.480Z,85.89
2023-01-29T09:42:25.419Z,85.89
2023-01-29T09:43:25.408Z,85.78
2023-01-29T09:44:25.469Z,85.47
2023-01-29T09:45:25.417Z,85.47
2023-01-29T09:46:25.452Z,85.68
2023-01-29T09:47:25.497Z,85.99
2023-01-29T09:48:25.356Z,86.31
2023-01-29T09:49:28.081Z,85.89
2023-01-29T09:50:29.220Z,85.68
2023-01-29T09:51:25.340Z,85.78
2023-01-29T09:52:25.352Z,85.58
2023-01-29T09:53:25.308Z,85.05
2023-01-29T09:54:25.291Z,84.70
2023-01-29T09:55:25.288Z,84.59
2023-01-29T09:56:25.267Z,84.39
2023-01-29T09:57:25.258Z,84.34
2023-01-29T09:58:25.269Z,84.03
2023-01-29T09:59:25.239Z,83.62
2023-01-29T10:00:25.255Z,83.30
2023-01-29T10:01:25.313Z,82.99
2023-01-29T10:02:25.306Z,82.57
2023-01-29T10:03:25.981Z,82.36
2023-01-29T10:04:37.964Z,82.26
2023-01-29T10:05:25.180Z,82.15
2023-01-29T10:06:25.152Z,81.95
2023-01-29T10:07:25.139Z,81.95
2023-01-29T10:08:25.174Z,81.95
2023-01-29T10:09:25.132Z,81.84
2023-01-29T10:10:25.126Z,82.26
2023-01-29T10:11:25.099Z,81.84
2023-01-29T10:12:25.120Z,81.52
2023-01-29T10:13:25.132Z,81.42
2023-01-29T10:14:25.340Z,81.73
2023-01-29T10:15:25.093Z,81.90
2023-01-29T10:16:25.049Z,81.38
2023-01-29T10:17:25.022Z,81.28
2023-01-29T10:18:25.018Z,81.28
2023-01-29T10:19:25.038Z,81.18
2023-01-29T10:20:25.013Z,81.18
2023-01-29T10:21:24.983Z,81.03
2023-01-29T10:22:25.005Z,81.13
2023-01-29T10:23:25.969Z,81.13
2023-01-29T10:24:25.220Z,80.82
2023-01-29T10:25:25.994Z,80.41
2023-01-29T10:26:24.969Z,79.99
2023-01-29T10:27:24.918Z,80.20
2023-01-29T10:28:26.020Z,80.41
2023-01-29T10:29:24.900Z,80.62
2023-01-29T10:30:24.908Z,80.20
2023-01-29T10:31:25.712Z,80.09
2023-01-29T10:32:24.892Z,80.30
2023-01-29T10:33:24.863Z,80.51
2023-01-29T10:34:29.581Z,79.88
2023-01-29T10:35:24.841Z,80.09
2023-01-29T10:36:24.818Z,79.78
2023-01-29T10:37:24.813Z,79.88
2023-01-29T10:38:25.123Z,80.05
2023-01-29T10:39:24.852Z,79.74
2023-01-29T10:40:25.613Z,79.43
2023-01-29T10:41:24.800Z,79.22
2023-01-29T10:42:24.759Z,79.33
2023-01-29T10:43:24.734Z,79.11
2023-01-29T10:44:24.750Z,79.19
2023-01-29T10:45:32.283Z,79.29
2023-01-29T10:46:24.780Z,79.29
2023-01-29T10:47:33.047Z,79.29
2023-01-29T10:48:26.460Z,78.56
2023-01-29T10:49:24.744Z,78.83
2023-01-29T10:50:24.730Z,78.42
2023-01-29T10:51:24.686Z,78.73
2023-01-29T10:52:24.639Z,78.52
2023-01-29T10:53:24.653Z,78.49
2023-01-29T10:54:24.639Z,78.24
2023-01-29T10:55:24.606Z,77.93
2023-01-29T10:56:24.675Z,78.00
2023-01-29T10:57:24.588Z,77.58
2023-01-29T10:58:24.887Z,76.51
2023-01-29T10:59:24.624Z,76.51
2023-01-29T11:00:24.599Z,76.16
2023-01-29T11:01:24.703Z,75.43
2023-01-29T11:02:24.587Z,74.91
2023-01-29T11:03:28.475Z,74.08
2023-01-29T11:04:24.555Z,74.18
2023-01-29T11:05:24.519Z,74.91
2023-01-29T11:06:24.489Z,75.95
2023-01-29T11:07:24.489Z,75.43
2023-01-29T11:08:24.512Z,74.91
2023-01-29T11:09:24.468Z,74.29
2023-01-29T11:10:25.103Z,74.49
2023-01-29T11:11:24.478Z,75.05
2023-01-29T11:12:24.422Z,75.15
2023-01-29T11:13:24.439Z,75.15
2023-01-29T11:14:24.424Z,75.05
2023-01-29T11:15:24.586Z,74.95
2023-01-29T11:16:24.375Z,75.19
2023-01-29T11:17:24.373Z,75.50
2023-01-29T11:18:24.372Z,75.81
2023-01-29T11:19:24.954Z,76.12
2023-01-29T11:20:24.383Z,76.09
2023-01-29T11:21:24.322Z,75.88
2023-01-29T11:22:24.313Z,75.78
2023-01-29T11:23:24.324Z,75.36
2023-01-29T11:24:24.284Z,74.95
2023-01-29T11:25:24.273Z,74.63
2023-01-29T11:26:24.295Z,74.95
2023-01-29T11:27:24.332Z,74.63
2023-01-29T11:28:24.270Z,75.40
2023-01-29T11:29:24.568Z,75.71
2023-01-29T11:30:24.309Z,75.92
2023-01-29T11:31:24.298Z,75.40
2023-01-29T11:32:24.235Z,75.60
2023-01-29T11:33:24.202Z,75.92
2023-01-29T11:34:24.185Z,76.16
2023-01-29T11:35:24.179Z,76.06
2023-01-29T11:36:24.163Z,76.26
2023-01-29T11:37:24.187Z,77.10
2023-01-29T11:38:24.124Z,76.96
2023-01-29T11:39:24.198Z,77.17
2023-01-29T11:40:24.153Z,76.82
2023-01-29T11:41:25.905Z,76.72
2023-01-29T11:42:24.133Z,76.06
2023-01-29T11:43:24.088Z,75.95
2023-01-29T11:44:24.153Z,76.06
2023-01-29T11:45:24.055Z,75.95
2023-01-29T11:46:24.085Z,75.81
2023-01-29T11:47:24.070Z,75.81
2023-01-29T11:48:24.012Z,75.19
2023-01-29T11:49:24.041Z,74.35
2023-01-29T11:50:24.000Z,74.25
2023-01-29T11:51:24.044Z,74.46
2023-01-29T11:52:23.973Z,74.35
2023-01-29T11:53:24.011Z,74.15
2023-01-29T11:54:24.001Z,74.46
2023-01-29T11:55:23.955Z,75.01
2023-01-29T11:56:23.954Z,75.32
2023-01-29T11:57:23.945Z,74.80
2023-01-29T11:58:23.903Z,74.80
2023-01-29T11:59:23.908Z,74.91
2023-01-29T12:00:23.928Z,75.12
2023-01-29T12:01:23.878Z,75.22
2023-01-29T12:02:24.160Z,75.22
2023-01-29T12:03:25.082Z,74.80
2023-01-29T12:04:25.566Z,74.80
2023-01-29T12:05:23.835Z,75.22
2023-01-29T12:06:23.818Z,75.46
2023-01-29T12:07:23.835Z,75.88
2023-01-29T12:08:23.794Z,75.54
2023-01-29T12:09:23.808Z,75.32
2023-01-29T12:10:23.834Z,75.32
2023-01-29T12:11:23.765Z,75.32
2023-01-29T12:12:23.746Z,75.22
2023-01-29T12:13:23.725Z,75.22
2023-01-29T12:14:23.724Z,75.40
2023-01-29T12:15:23.741Z,74.98
2023-01-29T12:16:23.777Z,74.46
2023-01-29T12:17:23.689Z,74.04
2023-01-29T12:18:23.674Z,73.94
2023-01-29T12:19:23.654Z,74.25
2023-01-29T12:20:23.707Z,74.43
2023-01-29T12:21:23.643Z,73.80
2023-01-29T12:22:23.647Z,73.07
2023-01-29T12:23:23.626Z,73.07
2023-01-29T12:24:23.614Z,73.46
2023-01-29T12:25:23.619Z,73.56
2023-01-29T12:26:23.580Z,73.04
2023-01-29T12:27:23.566Z,72.83
2023-01-29T12:28:23.565Z,73.56
2023-01-29T12:29:23.566Z,72.73
2023-01-29T12:30:23.555Z,72.42
2023-01-29T12:31:23.540Z,72.73
2023-01-29T12:32:23.543Z,72.52
2023-01-29T12:33:23.499Z,72.83
2023-01-29T12:34:23.495Z,72.86
2023-01-29T12:35:23.485Z,73.28
2023-01-29T12:36:23.533Z,73.70
2023-01-29T12:37:26.465Z,73.49
2023-01-29T12:38:23.454Z,73.07
2023-01-29T12:39:23.465Z,73.07
2023-01-29T12:40:23.445Z,73.07
2023-01-29T12:41:23.441Z,73.60
2023-01-29T12:42:23.409Z,74.32
2023-01-29T12:43:24.079Z,73.28
2023-01-29T12:44:23.386Z,73.49
2023-01-29T12:45:23.415Z,73.70
2023-01-29T12:46:23.381Z,73.70
2023-01-29T12:47:23.352Z,73.39
2023-01-29T12:48:23.885Z,73.60
2023-01-29T12:49:24.192Z,73.18
2023-01-29T12:50:23.342Z,72.94
2023-01-29T12:51:23.315Z,72.73
2023-01-29T12:52:23.284Z,72.83
2023-01-29T12:53:23.357Z,73.14